Time,TemperatureF,DewpointF,PressureIn,WindDirection,WindDirectionDegrees,WindSpeedMPH,WindSpeedGustMPH,Humidity,HourlyPrecipIn,Conditions,Clouds,dailyrainin,SoftwareType,DateUTC
2013-08-04 00:07:00,61.2,55.3,29.82,WNW,292,0.0,-999.0,81,-99.99,,,0.00,Acu-Link.com,2013-08-04 04:07:00,
2013-08-04 00:23:00,60.8,56.3,29.82,SSE,157,0.0,-999.0,85,-99.99,,,0.00,Acu-Link.com,2013-08-04 04:23:00,
2013-08-04 00:38:00,59.9,55.7,29.83,NNE,22,0.0,-999.0,86,-99.99,,,0.00,Acu-Link.com,2013-08-04 04:38:00,
2013-08-04 00:53:00,58.6,54.7,29.83,NE,45,0.0,-999.0,87,-99.99,,,0.00,Acu-Link.com,2013-08-04 04:53:00,
2013-08-04 01:09:00,58.1,54.9,29.83,NNW,337,0.0,-999.0,89,-99.99,,,0.00,Acu-Link.com,2013-08-04 05:09:00,
2013-08-04 01:24:00,57.0,54.1,29.82,NNE,22,0.0,-999.0,90,-99.99,,,0.00,Acu-Link.com,2013-08-04 05:24:00,
2013-08-04 01:39:00,56.7,54.1,29.81,SSE,157,0.0,-999.0,91,-99.99,,,0.00,Acu-Link.com,2013-08-04 05:39:00,
2013-08-04 01:54:00,56.3,54.0,29.81,SW,225,0.0,-999.0,92,-99.99,,,0.00,Acu-Link.com,2013-08-04 05:54:00,
2013-08-04 02:10:00,55.8,53.8,29.81,North,0,0.0,-999.0,93,-99.99,,,0.00,Acu-Link.com,2013-08-04 06:10:00,
2013-08-04 02:25:00,55.4,53.7,29.80,SSE,157,0.0,-999.0,94,-99.99,,,0.00,Acu-Link.com,2013-08-04 06:25:00,
2013-08-04 02:40:00,55.4,54.0,29.81,NNE,22,0.0,-999.0,95,-99.99,,,0.00,Acu-Link.com,2013-08-04 06:40:00,
2013-08-04 02:55:00,54.7,53.3,29.81,SSE,157,0.0,-999.0,95,-99.99,,,0.00,Acu-Link.com,2013-08-04 06:55:00,
2013-08-04 03:11:00,54.3,52.9,29.81,WNW,292,0.0,-999.0,95,-99.99,,,0.00,Acu-Link.com,2013-08-04 07:11:00,
2013-08-04 03:27:00,54.0,52.9,29.80,NNE,22,0.0,-999.0,96,-99.99,,,0.00,Acu-Link.com,2013-08-04 07:27:00,
2013-08-04 03:42:00,53.6,52.8,29.80,ESE,112,0.0,-999.0,97,-99.99,,,0.00,Acu-Link.com,2013-08-04 07:42:00,
2013-08-04 03:57:00,53.4,52.6,29.80,SE,135,1.1,-999.0,97,-99.99,,,0.00,Acu-Link.com,2013-08-04 07:57:00,
2013-08-04 04:12:00,53.2,52.6,29.81,SE,135,0.0,-999.0,98,-99.99,,,0.00,Acu-Link.com,2013-08-04 08:12:00,
2013-08-04 04:27:00,53.2,52.6,29.81,East,90,0.0,-999.0,98,-99.99,,,0.00,Acu-Link.com,2013-08-04 08:27:00,
2013-08-04 04:43:00,52.9,52.4,29.80,SSE,157,0.0,-999.0,98,-99.99,,,0.00,Acu-Link.com,2013-08-04 08:43:00,
2013-08-04 04:57:00,52.5,52.0,29.81,SSE,157,0.0,-999.0,98,-99.99,,,0.00,Acu-Link.com,2013-08-04 08:57:00,
2013-08-04 05:12:00,52.3,51.8,29.81,NNW,337,0.0,-999.0,98,-99.99,,,0.00,Acu-Link.com,2013-08-04 09:12:00,
2013-08-04 05:28:00,52.3,51.8,29.82,North,0,0.0,-999.0,98,-99.99,,,0.00,Acu-Link.com,2013-08-04 09:28:00,
2013-08-04 05:43:00,52.3,51.8,29.82,NNE,22,0.0,-999.0,98,-99.99,,,0.00,Acu-Link.com,2013-08-04 09:43:00,
2013-08-04 05:58:00,52.3,51.8,29.83,NNE,22,0.0,-999.0,98,-99.99,,,0.00,Acu-Link.com,2013-08-04 09:58:00,
2013-08-04 06:13:00,52.3,51.8,29.83,NNW,337,0.0,-999.0,98,-99.99,,,0.00,Acu-Link.com,2013-08-04 10:13:00,
2013-08-04 06:29:00,52.7,52.2,29.83,SSE,157,0.0,-999.0,98,-99.99,,,0.00,Acu-Link.com,2013-08-04 10:29:00,
2013-08-04 06:44:00,53.6,53.0,29.83,East,90,0.0,-999.0,98,-99.99,,,0.00,Acu-Link.com,2013-08-04 10:44:00,
2013-08-04 06:59:00,54.1,53.5,29.83,NNE,22,0.0,-999.0,98,-99.99,,,0.00,Acu-Link.com,2013-08-04 10:59:00,
2013-08-04 07:15:00,54.9,54.3,29.84,ESE,112,0.0,-999.0,98,-99.99,,,0.00,Acu-Link.com,2013-08-04 11:15:00,
2013-08-04 07:30:00,56.8,56.2,29.84,NNE,22,1.7,-999.0,98,-99.99,,,0.00,Acu-Link.com,2013-08-04 11:30:00,
2013-08-04 07:45:00,58.1,57.5,29.84,NNW,337,2.2,-999.0,98,-99.99,,,0.00,Acu-Link.com,2013-08-04 11:45:00,
2013-08-04 08:00:00,59.2,58.3,29.84,North,0,1.7,-999.0,97,-99.99,,,0.00,Acu-Link.com,2013-08-04 12:00:00,
2013-08-04 08:15:00,60.3,58.6,29.84,South,180,0.0,-999.0,94,-99.99,,,0.00,Acu-Link.com,2013-08-04 12:15:00,
2013-08-04 08:31:00,62.2,58.6,29.84,NNE,22,3.2,-999.0,88,-99.99,,,0.00,Acu-Link.com,2013-08-04 12:31:00,
2013-08-04 09:01:00,63.5,57.9,29.83,SE,135,2.2,-999.0,82,-99.99,,,0.00,Acu-Link.com,2013-08-04 13:01:00,
2013-08-04 09:17:00,64.8,58.8,29.83,SE,135,2.7,-999.0,81,-99.99,,,0.00,Acu-Link.com,2013-08-04 13:17:00,
2013-08-04 09:32:00,65.5,58.5,29.83,NNW,337,1.7,-999.0,78,-99.99,,,0.00,Acu-Link.com,2013-08-04 13:32:00,
2013-08-04 09:47:00,66.2,58.8,29.83,ESE,112,1.7,-999.0,77,-99.99,,,0.00,Acu-Link.com,2013-08-04 13:47:00,
2013-08-04 10:03:00,67.3,59.1,29.83,SSE,157,2.2,-999.0,75,-99.99,,,0.00,Acu-Link.com,2013-08-04 14:03:00,
2013-08-04 10:18:00,68.5,59.1,29.83,ESE,112,1.1,-999.0,72,-99.99,,,0.00,Acu-Link.com,2013-08-04 14:18:00,
2013-08-04 10:33:00,68.7,59.3,29.82,NNE,22,0.0,-999.0,72,-99.99,,,0.00,Acu-Link.com,2013-08-04 14:33:00,
2013-08-04 10:48:00,69.8,59.6,29.82,East,90,1.7,-999.0,70,-99.99,,,0.00,Acu-Link.com,2013-08-04 14:48:00,
2013-08-04 11:04:00,71.1,59.2,29.82,SSE,157,2.2,-999.0,66,-99.99,,,0.00,Acu-Link.com,2013-08-04 15:04:00,
2013-08-04 11:19:00,69.8,58.3,29.83,WSW,247,2.2,-999.0,67,-99.99,,,0.00,Acu-Link.com,2013-08-04 15:19:00,
2013-08-04 11:34:00,68.9,60.3,29.82,NE,45,1.7,-999.0,74,-99.99,,,0.00,Acu-Link.com,2013-08-04 15:34:00,
2013-08-04 11:50:00,69.6,60.2,29.82,ESE,112,2.2,-999.0,72,-99.99,,,0.00,Acu-Link.com,2013-08-04 15:50:00,
2013-08-04 12:05:00,68.5,58.7,29.82,NE,45,0.0,-999.0,71,-99.99,,,0.00,Acu-Link.com,2013-08-04 16:05:00,
2013-08-04 12:20:00,70.2,60.3,29.81,ESE,112,3.7,-999.0,71,-99.99,,,0.00,Acu-Link.com,2013-08-04 16:20:00,
2013-08-04 12:35:00,70.2,59.5,29.81,West,270,0.0,-999.0,69,-99.99,,,0.00,Acu-Link.com,2013-08-04 16:35:00,
2013-08-04 12:51:00,71.8,60.2,29.81,ESE,112,1.7,-999.0,67,-99.99,,,0.00,Acu-Link.com,2013-08-04 16:51:00,
2013-08-04 13:06:00,72.3,59.9,29.81,SSW,202,0.0,-999.0,65,-99.99,,,0.00,Acu-Link.com,2013-08-04 17:06:00,
2013-08-04 13:22:00,70.7,60.0,29.81,ESE,112,1.7,-999.0,69,-99.99,,,0.00,Acu-Link.com,2013-08-04 17:22:00,
2013-08-04 13:37:00,69.4,60.4,29.82,WSW,247,2.2,-999.0,73,-99.99,,,0.00,Acu-Link.com,2013-08-04 17:37:00,
2013-08-04 13:52:00,66.2,58.8,29.82,SE,135,0.0,-999.0,77,-99.99,,,0.01,Acu-Link.com,2013-08-04 17:52:00,
2013-08-04 14:08:00,67.5,62.8,29.81,SE,135,0.0,-999.0,85,-99.99,,,0.01,Acu-Link.com,2013-08-04 18:08:00,
2013-08-04 14:23:00,67.6,62.2,29.81,ESE,112,0.0,-999.0,83,-99.99,,,0.01,Acu-Link.com,2013-08-04 18:23:00,
2013-08-04 14:38:00,66.6,61.6,29.82,ESE,112,0.0,-999.0,84,-99.99,,,0.01,Acu-Link.com,2013-08-04 18:38:00,
2013-08-04 14:53:00,65.3,59.7,29.81,ESE,112,0.0,-999.0,82,-99.99,,,0.01,Acu-Link.com,2013-08-04 18:53:00,
2013-08-04 15:09:00,65.8,60.5,29.81,NE,45,0.0,-999.0,83,-99.99,,,0.01,Acu-Link.com,2013-08-04 19:09:00,
2013-08-04 15:24:00,68.0,62.3,29.81,SSW,202,0.0,-999.0,82,-99.99,,,0.01,Acu-Link.com,2013-08-04 19:24:00,
2013-08-04 15:39:00,69.4,60.4,29.81,ENE,67,2.2,-999.0,73,-99.99,,,0.01,Acu-Link.com,2013-08-04 19:39:00,
2013-08-04 15:54:00,70.9,60.2,29.80,SSW,202,0.0,-999.0,69,-99.99,,,0.01,Acu-Link.com,2013-08-04 19:54:00,
2013-08-04 16:10:00,70.9,59.4,29.79,NE,45,1.7,-999.0,67,-99.99,,,0.01,Acu-Link.com,2013-08-04 20:10:00,
2013-08-04 16:25:00,70.0,58.5,29.79,NE,45,1.7,-999.0,67,-99.99,,,0.01,Acu-Link.com,2013-08-04 20:25:00,
2013-08-04 16:40:00,68.9,57.9,29.80,ESE,112,1.7,-999.0,68,-99.99,,,0.01,Acu-Link.com,2013-08-04 20:40:00,
2013-08-04 16:56:00,68.0,58.2,29.81,SSE,157,1.7,-999.0,71,-99.99,,,0.01,Acu-Link.com,2013-08-04 20:56:00,
2013-08-04 17:11:00,67.3,60.2,29.81,WSW,247,0.0,-999.0,78,-99.99,,,0.01,Acu-Link.com,2013-08-04 21:11:00,
2013-08-04 17:26:00,67.1,59.6,29.81,West,270,1.1,-999.0,77,-99.99,,,0.01,Acu-Link.com,2013-08-04 21:26:00,
2013-08-04 17:41:00,65.3,58.6,29.82,SSE,157,1.7,-999.0,79,-99.99,,,0.01,Acu-Link.com,2013-08-04 21:41:00,
2013-08-04 17:57:00,65.3,58.3,29.82,SE,135,2.7,-999.0,78,-99.99,,,0.01,Acu-Link.com,2013-08-04 21:57:00,
2013-08-04 18:12:00,65.3,58.6,29.82,South,180,1.7,-999.0,79,-99.99,,,0.01,Acu-Link.com,2013-08-04 22:12:00,
2013-08-04 18:27:00,64.8,57.4,29.82,SSE,157,2.2,-999.0,77,-99.99,,,0.01,Acu-Link.com,2013-08-04 22:27:00,
2013-08-04 18:42:00,63.5,57.2,29.83,South,180,1.1,-999.0,80,-99.99,,,0.01,Acu-Link.com,2013-08-04 22:42:00,
2013-08-04 18:58:00,63.0,57.8,29.84,South,180,1.1,-999.0,83,-99.99,,,0.01,Acu-Link.com,2013-08-04 22:58:00,
2013-08-04 19:13:00,62.6,57.4,29.84,South,180,0.0,-999.0,83,-99.99,,,0.01,Acu-Link.com,2013-08-04 23:13:00,
2013-08-04 19:28:00,62.1,56.5,29.86,South,180,0.0,-999.0,82,-99.99,,,0.01,Acu-Link.com,2013-08-04 23:28:00,
2013-08-04 19:44:00,61.9,57.0,29.85,SE,135,2.7,-999.0,84,-99.99,,,0.01,Acu-Link.com,2013-08-04 23:44:00,
2013-08-04 19:59:00,61.5,56.0,29.86,South,180,2.2,-999.0,82,-99.99,,,0.01,Acu-Link.com,2013-08-04 23:59:00,
2013-08-04 20:14:00,61.5,56.0,29.86,SSE,157,1.7,-999.0,82,-99.99,,,0.01,Acu-Link.com,2013-08-05 00:14:00,
2013-08-04 20:30:00,60.1,54.2,29.87,ESE,112,2.2,-999.0,81,-99.99,,,0.01,Acu-Link.com,2013-08-05 00:30:00,
2013-08-04 20:44:00,59.5,53.3,29.87,ESE,112,1.7,-999.0,80,-99.99,,,0.01,Acu-Link.com,2013-08-05 00:44:00,
2013-08-04 21:00:00,59.0,52.8,29.88,South,180,1.7,-999.0,80,-99.99,,,0.01,Acu-Link.com,2013-08-05 01:00:00,
2013-08-04 21:15:00,58.6,52.4,29.89,SSE,157,0.0,-999.0,80,-99.99,,,0.01,Acu-Link.com,2013-08-05 01:15:00,
2013-08-04 21:30:00,58.1,52.3,29.89,SSW,202,0.0,-999.0,81,-99.99,,,0.01,Acu-Link.com,2013-08-05 01:30:00,
2013-08-04 21:46:00,57.6,52.8,29.89,SSE,157,0.0,-999.0,84,-99.99,,,0.01,Acu-Link.com,2013-08-05 01:46:00,
2013-08-04 22:16:00,56.8,52.7,29.89,ESE,112,0.0,-999.0,86,-99.99,,,0.01,Acu-Link.com,2013-08-05 02:16:00,
2013-08-04 22:31:00,56.5,52.4,29.89,SSE,157,1.1,-999.0,86,-99.99,,,0.01,Acu-Link.com,2013-08-05 02:31:00,
2013-08-04 22:47:00,55.9,52.1,29.89,SSE,157,2.2,-999.0,87,-99.99,,,0.01,Acu-Link.com,2013-08-05 02:47:00,
2013-08-04 23:02:00,55.9,52.4,29.89,WNW,292,0.0,-999.0,88,-99.99,,,0.01,Acu-Link.com,2013-08-05 03:02:00,
2013-08-04 23:18:00,55.6,52.1,29.90,NE,45,0.0,-999.0,88,-99.99,,,0.01,Acu-Link.com,2013-08-05 03:18:00,
2013-08-04 23:33:00,55.2,52.0,29.90,South,180,0.0,-999.0,89,-99.99,,,0.01,Acu-Link.com,2013-08-05 03:33:00,
2013-08-04 23:48:00,54.9,52.0,29.90,SSE,157,1.7,-999.0,90,-99.99,,,0.01,Acu-Link.com,2013-08-05 03:48:00,